map of LUN home
LUN - Airport
Location
City:  Lusaka, Lusaka, Zambia
Name:Kenneth Kaunda International Airport
ICAO:FLKK
IATA:LUN

Details
Type:Airport (Aerodrome, Airfield)
Use:Public/Civil, Military, International (customs port of entry)
Latitude:1519'51"S (-15.330816)
Longitude:2827'09"E (28.452628)
Elevation:3779 ft (1152 m)
Variation:5.28W (WMM2015 magnetic declination)
0.03 annual change
Runways:2
Longest:12998 × 150 ft (3962 × 45.5 m), paved

Time
Time Zone:UTC+2
Local Time:

Weather
METAR:FLKK 191100Z 04012KT 9999 BKN045 FEW300 31/13 Q1019

Related Locations
Nearby:
Farthest:ITO: 12056 mi / 19403 km
Hilo [Hilo Intl], Hawaii, HI, US

Find:

   beyond  
but within

Other Information
Maps:
NOTAMs:
Links:
Sources:

  
  • flag of Zambia
  

Sectional Chart

Flight Planning
at skyvector.com

Satellite Image

Google Maps Satellite view

 

Copyright © 2004-2018 Karl L. Swartz. All rights reserved.
The Great Circle Mapper name and logo are trademarks of the Great Circle Mapper.
All other trademarks mentioned herein belong to their respective owners.
Please see credits for attibutions and further copyright information.

  Follow gcmap on Facebook Follow gcmap on Twitter Follow gcmap on Google+ GCmap on LinkedIn

hCard Microformat

Geo Microformat